sensor_id;sensor_type;location;lat;lon;timestamp;temperature;humidity
51637;DHT22;37713;53.254;6.460;2023-04-01T00:00:22;10.20;99.90
51637;DHT22;37713;53.254;6.460;2023-04-01T00:02:48;10.20;99.90
51637;DHT22;37713;53.254;6.460;2023-04-01T00:05:14;10.20;99.90
51637;DHT22;37713;53.254;6.460;2023-04-01T00:07:41;10.20;99.90
51637;DHT22;37713;53.254;6.460;2023-04-01T00:10:10;10.20;99.90
51637;DHT22;37713;53.254;6.460;2023-04-01T00:12:37;10.20;99.90
51637;DHT22;37713;53.254;6.460;2023-04-01T00:15:06;10.20;99.90
51637;DHT22;37713;53.254;6.460;2023-04-01T00:17:32;10.20;99.90
51637;DHT22;37713;53.254;6.460;2023-04-01T00:19:58;10.20;99.90
51637;DHT22;37713;53.254;6.460;2023-04-01T00:22:24;10.20;99.90
51637;DHT22;37713;53.254;6.460;2023-04-01T00:24:52;10.20;99.90
51637;DHT22;37713;53.254;6.460;2023-04-01T00:27:17;10.30;99.90
51637;DHT22;37713;53.254;6.460;2023-04-01T00:29:47;10.30;99.90
51637;DHT22;37713;53.254;6.460;2023-04-01T00:32:14;10.20;99.90
51637;DHT22;37713;53.254;6.460;2023-04-01T00:34:40;10.20;99.90
51637;DHT22;37713;53.254;6.460;2023-04-01T00:37:06;10.20;99.90
51637;DHT22;37713;53.254;6.460;2023-04-01T00:39:33;10.20;99.90
51637;DHT22;37713;53.254;6.460;2023-04-01T00:42:00;10.20;99.90
51637;DHT22;37713;53.254;6.460;2023-04-01T00:44:29;10.20;99.90
51637;DHT22;37713;53.254;6.460;2023-04-01T00:46:56;10.20;99.90
51637;DHT22;37713;53.254;6.460;2023-04-01T00:49:26;10.20;99.90
51637;DHT22;37713;53.254;6.460;2023-04-01T00:51:55;10.20;99.90
51637;DHT22;37713;53.254;6.460;2023-04-01T00:54:24;10.20;99.90
51637;DHT22;37713;53.254;6.460;2023-04-01T00:56:55;10.20;99.90
51637;DHT22;37713;53.254;6.460;2023-04-01T00:59:32;10.20;99.90
51637;DHT22;37713;53.254;6.460;2023-04-01T01:02:00;10.20;99.90
51637;DHT22;37713;53.254;6.460;2023-04-01T01:04:32;10.20;99.90
51637;DHT22;37713;53.254;6.460;2023-04-01T01:09:53;10.20;99.90
51637;DHT22;37713;53.254;6.460;2023-04-01T01:12:21;10.20;99.90
51637;DHT22;37713;53.254;6.460;2023-04-01T01:14:58;10.20;99.90
51637;DHT22;37713;53.254;6.460;2023-04-01T01:22:54;10.20;99.90
51637;DHT22;37713;53.254;6.460;2023-04-01T01:31:23;10.20;99.90
51637;DHT22;37713;53.254;6.460;2023-04-01T01:36:40;10.20;99.90
51637;DHT22;37713;53.254;6.460;2023-04-01T01:39:08;10.20;99.90
51637;DHT22;37713;53.254;6.460;2023-04-01T01:41:37;10.20;99.90
51637;DHT22;37713;53.254;6.460;2023-04-01T01:44:04;10.20;99.90
51637;DHT22;37713;53.254;6.460;2023-04-01T01:46:32;10.20;99.90
51637;DHT22;37713;53.254;6.460;2023-04-01T01:49:00;10.20;99.90
51637;DHT22;37713;53.254;6.460;2023-04-01T01:51:28;10.20;99.90
51637;DHT22;37713;53.254;6.460;2023-04-01T01:53:54;10.20;99.90
51637;DHT22;37713;53.254;6.460;2023-04-01T01:56:23;10.30;99.90
51637;DHT22;37713;53.254;6.460;2023-04-01T01:59:03;10.30;99.90
51637;DHT22;37713;53.254;6.460;2023-04-01T02:01:32;10.20;99.90
51637;DHT22;37713;53.254;6.460;2023-04-01T02:03:59;10.20;99.90
51637;DHT22;37713;53.254;6.460;2023-04-01T02:06:28;10.20;99.90
51637;DHT22;37713;53.254;6.460;2023-04-01T02:09:07;10.20;99.90
51637;DHT22;37713;53.254;6.460;2023-04-01T02:14:11;10.20;99.90
51637;DHT22;37713;53.254;6.460;2023-04-01T02:19:23;10.20;99.90
51637;DHT22;37713;53.254;6.460;2023-04-01T02:21:54;10.20;99.90
51637;DHT22;37713;53.254;6.460;2023-04-01T02:24:22;10.20;99.90
51637;DHT22;37713;53.254;6.460;2023-04-01T02:26:51;10.20;99.90
51637;DHT22;37713;53.254;6.460;2023-04-01T02:29:20;10.20;99.90
51637;DHT22;37713;53.254;6.460;2023-04-01T02:31:47;10.20;99.90
51637;DHT22;37713;53.254;6.460;2023-04-01T02:34:13;10.20;99.90
51637;DHT22;37713;53.254;6.460;2023-04-01T02:36:39;10.20;99.90
51637;DHT22;37713;53.254;6.460;2023-04-01T02:39:06;10.20;99.90
51637;DHT22;37713;53.254;6.460;2023-04-01T02:41:42;10.20;99.90
51637;DHT22;37713;53.254;6.460;2023-04-01T02:44:08;10.20;99.90
51637;DHT22;37713;53.254;6.460;2023-04-01T02:46:35;10.20;99.90
51637;DHT22;37713;53.254;6.460;2023-04-01T02:49:01;10.20;99.90
51637;DHT22;37713;53.254;6.460;2023-04-01T02:51:26;10.20;99.90
51637;DHT22;37713;53.254;6.460;2023-04-01T02:53:52;10.20;99.90
51637;DHT22;37713;53.254;6.460;2023-04-01T02:56:18;10.20;99.90
51637;DHT22;37713;53.254;6.460;2023-04-01T02:58:45;10.20;99.90
51637;DHT22;37713;53.254;6.460;2023-04-01T03:01:11;10.10;99.90
51637;DHT22;37713;53.254;6.460;2023-04-01T03:03:37;10.10;99.90
51637;DHT22;37713;53.254;6.460;2023-04-01T03:06:07;10.10;99.90
51637;DHT22;37713;53.254;6.460;2023-04-01T03:08:33;10.10;99.90
51637;DHT22;37713;53.254;6.460;2023-04-01T03:10:58;10.10;99.90
51637;DHT22;37713;53.254;6.460;2023-04-01T03:13:25;10.10;99.90
51637;DHT22;37713;53.254;6.460;2023-04-01T03:15:51;10.10;99.90
51637;DHT22;37713;53.254;6.460;2023-04-01T03:18:17;10.10;99.90
51637;DHT22;37713;53.254;6.460;2023-04-01T03:20:43;10.10;99.90
51637;DHT22;37713;53.254;6.460;2023-04-01T03:23:09;10.10;99.90
51637;DHT22;37713;53.254;6.460;2023-04-01T03:25:35;10.10;99.90
51637;DHT22;37713;53.254;6.460;2023-04-01T03:28:01;10.10;99.90
51637;DHT22;37713;53.254;6.460;2023-04-01T03:30:28;10.10;99.90
51637;DHT22;37713;53.254;6.460;2023-04-01T03:32:55;10.10;99.90
51637;DHT22;37713;53.254;6.460;2023-04-01T03:35:21;10.10;99.90
51637;DHT22;37713;53.254;6.460;2023-04-01T03:37:47;10.10;99.90
51637;DHT22;37713;53.254;6.460;2023-04-01T03:40:13;10.10;99.90
51637;DHT22;37713;53.254;6.460;2023-04-01T03:42:39;10.10;99.90
51637;DHT22;37713;53.254;6.460;2023-04-01T03:45:05;10.10;99.90
51637;DHT22;37713;53.254;6.460;2023-04-01T03:47:31;10.00;99.90
51637;DHT22;37713;53.254;6.460;2023-04-01T03:49:57;10.00;99.90
51637;DHT22;37713;53.254;6.460;2023-04-01T03:52:22;10.00;99.90
51637;DHT22;37713;53.254;6.460;2023-04-01T03:54:48;9.90;99.90
51637;DHT22;37713;53.254;6.460;2023-04-01T03:57:14;10.00;99.90
51637;DHT22;37713;53.254;6.460;2023-04-01T03:59:40;9.90;99.90
51637;DHT22;37713;53.254;6.460;2023-04-01T04:02:05;10.00;99.90
51637;DHT22;37713;53.254;6.460;2023-04-01T04:04:31;9.90;99.90
51637;DHT22;37713;53.254;6.460;2023-04-01T04:06:57;9.90;99.90
51637;DHT22;37713;53.254;6.460;2023-04-01T04:09:23;9.90;99.90
51637;DHT22;37713;53.254;6.460;2023-04-01T04:11:50;9.90;99.90
51637;DHT22;37713;53.254;6.460;2023-04-01T04:14:16;10.00;99.90
51637;DHT22;37713;53.254;6.460;2023-04-01T04:16:42;9.90;99.90
51637;DHT22;37713;53.254;6.460;2023-04-01T04:19:08;10.00;99.90
51637;DHT22;37713;53.254;6.460;2023-04-01T04:21:33;10.00;99.90
51637;DHT22;37713;53.254;6.460;2023-04-01T04:24:01;10.00;99.90
51637;DHT22;37713;53.254;6.460;2023-04-01T04:26:27;10.00;99.90
51637;DHT22;37713;53.254;6.460;2023-04-01T04:28:54;10.00;99.90
51637;DHT22;37713;53.254;6.460;2023-04-01T04:31:21;10.00;99.90
51637;DHT22;37713;53.254;6.460;2023-04-01T04:33:47;10.00;99.90
51637;DHT22;37713;53.254;6.460;2023-04-01T04:36:13;10.00;99.90
51637;DHT22;37713;53.254;6.460;2023-04-01T04:38:39;10.00;99.90
51637;DHT22;37713;53.254;6.460;2023-04-01T04:41:13;10.00;99.90
51637;DHT22;37713;53.254;6.460;2023-04-01T04:43:40;10.00;99.90
51637;DHT22;37713;53.254;6.460;2023-04-01T04:46:08;10.00;99.90
51637;DHT22;37713;53.254;6.460;2023-04-01T04:48:34;10.00;99.90
51637;DHT22;37713;53.254;6.460;2023-04-01T04:51:00;10.00;99.90
51637;DHT22;37713;53.254;6.460;2023-04-01T04:53:26;10.00;99.90
51637;DHT22;37713;53.254;6.460;2023-04-01T04:55:52;10.00;99.90
51637;DHT22;37713;53.254;6.460;2023-04-01T04:58:18;10.00;99.90
51637;DHT22;37713;53.254;6.460;2023-04-01T05:00:45;10.00;99.90
51637;DHT22;37713;53.254;6.460;2023-04-01T05:03:11;10.00;99.90
51637;DHT22;37713;53.254;6.460;2023-04-01T05:05:38;9.90;99.90
51637;DHT22;37713;53.254;6.460;2023-04-01T05:08:04;10.00;99.90
51637;DHT22;37713;53.254;6.460;2023-04-01T05:10:30;10.00;99.90
51637;DHT22;37713;53.254;6.460;2023-04-01T05:12:57;10.00;99.90
51637;DHT22;37713;53.254;6.460;2023-04-01T05:15:24;10.00;99.90
51637;DHT22;37713;53.254;6.460;2023-04-01T05:17:50;10.00;99.90
51637;DHT22;37713;53.254;6.460;2023-04-01T05:20:16;10.00;99.90
51637;DHT22;37713;53.254;6.460;2023-04-01T05:22:42;10.00;99.90
51637;DHT22;37713;53.254;6.460;2023-04-01T05:25:09;10.00;99.90
51637;DHT22;37713;53.254;6.460;2023-04-01T05:27:34;10.00;99.90
51637;DHT22;37713;53.254;6.460;2023-04-01T05:30:00;10.00;99.90
51637;DHT22;37713;53.254;6.460;2023-04-01T05:32:26;10.00;99.90
51637;DHT22;37713;53.254;6.460;2023-04-01T05:34:53;10.10;99.90
51637;DHT22;37713;53.254;6.460;2023-04-01T05:37:19;10.10;99.90
51637;DHT22;37713;53.254;6.460;2023-04-01T05:39:45;10.00;99.90
51637;DHT22;37713;53.254;6.460;2023-04-01T05:42:11;10.10;99.90
51637;DHT22;37713;53.254;6.460;2023-04-01T05:44:37;10.00;99.90
51637;DHT22;37713;53.254;6.460;2023-04-01T05:47:04;10.10;99.90
51637;DHT22;37713;53.254;6.460;2023-04-01T05:49:30;10.10;99.90
51637;DHT22;37713;53.254;6.460;2023-04-01T05:51:56;10.10;99.90
51637;DHT22;37713;53.254;6.460;2023-04-01T05:54:22;10.10;99.90
51637;DHT22;37713;53.254;6.460;2023-04-01T05:56:48;10.10;99.90
51637;DHT22;37713;53.254;6.460;2023-04-01T05:59:14;10.10;99.90
51637;DHT22;37713;53.254;6.460;2023-04-01T06:01:40;10.10;99.90
51637;DHT22;37713;53.254;6.460;2023-04-01T06:04:06;10.20;99.90
51637;DHT22;37713;53.254;6.460;2023-04-01T06:06:37;10.20;99.90
51637;DHT22;37713;53.254;6.460;2023-04-01T06:09:28;10.20;99.90
51637;DHT22;37713;53.254;6.460;2023-04-01T06:14:38;10.20;99.90
51637;DHT22;37713;53.254;6.460;2023-04-01T06:17:14;10.20;99.90
51637;DHT22;37713;53.254;6.460;2023-04-01T06:31:04;10.50;99.90
51637;DHT22;37713;53.254;6.460;2023-04-01T06:33:49;10.60;99.90
51637;DHT22;37713;53.254;6.460;2023-04-01T06:44:43;10.70;99.90
51637;DHT22;37713;53.254;6.460;2023-04-01T06:50:22;10.80;99.90
51637;DHT22;37713;53.254;6.460;2023-04-01T06:55:39;10.80;99.90
51637;DHT22;37713;53.254;6.460;2023-04-01T06:58:19;10.80;99.90
51637;DHT22;37713;53.254;6.460;2023-04-01T07:00:49;10.80;99.90
51637;DHT22;37713;53.254;6.460;2023-04-01T07:03:35;10.90;99.90
51637;DHT22;37713;53.254;6.460;2023-04-01T07:06:10;10.90;99.90
51637;DHT22;37713;53.254;6.460;2023-04-01T07:08:40;10.90;99.90
51637;DHT22;37713;53.254;6.460;2023-04-01T07:11:11;11.00;99.90
51637;DHT22;37713;53.254;6.460;2023-04-01T07:13:41;11.00;99.90
51637;DHT22;37713;53.254;6.460;2023-04-01T07:16:31;11.00;99.90
51637;DHT22;37713;53.254;6.460;2023-04-01T07:19:06;11.10;99.90
51637;DHT22;37713;53.254;6.460;2023-04-01T07:21:44;11.10;99.90
51637;DHT22;37713;53.254;6.460;2023-04-01T07:24:21;11.00;99.90
51637;DHT22;37713;53.254;6.460;2023-04-01T07:26:49;11.10;99.90
51637;DHT22;37713;53.254;6.460;2023-04-01T07:29:18;11.10;99.90
51637;DHT22;37713;53.254;6.460;2023-04-01T07:34:38;11.10;99.90
51637;DHT22;37713;53.254;6.460;2023-04-01T07:37:23;11.20;99.90
51637;DHT22;37713;53.254;6.460;2023-04-01T07:42:40;11.30;99.90
51637;DHT22;37713;53.254;6.460;2023-04-01T07:52:59;11.40;99.90
51637;DHT22;37713;53.254;6.460;2023-04-01T08:00:49;11.70;99.90
51637;DHT22;37713;53.254;6.460;2023-04-01T08:04:20;11.70;99.90
51637;DHT22;37713;53.254;6.460;2023-04-01T08:06:42;11.80;99.90
51637;DHT22;37713;53.254;6.460;2023-04-01T08:12:04;12.20;99.90
51637;DHT22;37713;53.254;6.460;2023-04-01T08:17:31;12.40;99.90
51637;DHT22;37713;53.254;6.460;2023-04-01T08:20:33;12.50;99.90
51637;DHT22;37713;53.254;6.460;2023-04-01T08:23:33;12.50;99.90
51637;DHT22;37713;53.254;6.460;2023-04-01T08:26:26;12.70;99.90
51637;DHT22;37713;53.254;6.460;2023-04-01T08:31:39;12.60;99.90
51637;DHT22;37713;53.254;6.460;2023-04-01T08:34:24;12.60;99.90
51637;DHT22;37713;53.254;6.460;2023-04-01T08:37:08;12.60;99.90
51637;DHT22;37713;53.254;6.460;2023-04-01T08:39:39;12.50;99.90
51637;DHT22;37713;53.254;6.460;2023-04-01T08:45:21;12.10;99.90
51637;DHT22;37713;53.254;6.460;2023-04-01T08:56:19;11.80;99.90
51637;DHT22;37713;53.254;6.460;2023-04-01T09:12:51;11.60;99.90
51637;DHT22;37713;53.254;6.460;2023-04-01T09:15:40;11.50;99.90
51637;DHT22;37713;53.254;6.460;2023-04-01T09:35:39;11.20;99.90
51637;DHT22;37713;53.254;6.460;2023-04-01T09:38:29;11.20;99.90
51637;DHT22;37713;53.254;6.460;2023-04-01T09:43:25;11.30;99.90
51637;DHT22;37713;53.254;6.460;2023-04-01T10:08:50;11.20;99.90
51637;DHT22;37713;53.254;6.460;2023-04-01T10:40:03;10.60;99.90
51637;DHT22;37713;53.254;6.460;2023-04-01T10:48:11;10.70;99.90
51637;DHT22;37713;53.254;6.460;2023-04-01T10:50:52;10.70;99.90
51637;DHT22;37713;53.254;6.460;2023-04-01T11:07:34;10.60;99.90
51637;DHT22;37713;53.254;6.460;2023-04-01T11:16:20;10.50;99.90
51637;DHT22;37713;53.254;6.460;2023-04-01T11:24:38;10.50;99.90
51637;DHT22;37713;53.254;6.460;2023-04-01T11:27:25;10.40;99.90
51637;DHT22;37713;53.254;6.460;2023-04-01T11:33:26;10.60;99.90
51637;DHT22;37713;53.254;6.460;2023-04-01T11:39:11;10.70;99.90
51637;DHT22;37713;53.254;6.460;2023-04-01T11:44:19;10.70;99.90
51637;DHT22;37713;53.254;6.460;2023-04-01T11:52:38;10.70;99.90
51637;DHT22;37713;53.254;6.460;2023-04-01T11:58:22;10.60;99.90
51637;DHT22;37713;53.254;6.460;2023-04-01T12:09:17;10.30;99.90
51637;DHT22;37713;53.254;6.460;2023-04-01T12:44:34;11.00;99.90
51637;DHT22;37713;53.254;6.460;2023-04-01T12:55:31;10.90;99.90
51637;DHT22;37713;53.254;6.460;2023-04-01T13:09:35;11.30;99.90
51637;DHT22;37713;53.254;6.460;2023-04-01T13:20:34;11.10;99.90
51637;DHT22;37713;53.254;6.460;2023-04-01T13:34:24;10.50;99.90
51637;DHT22;37713;53.254;6.460;2023-04-01T13:42:24;10.60;99.90
51637;DHT22;37713;53.254;6.460;2023-04-01T13:45:03;10.60;99.90
51637;DHT22;37713;53.254;6.460;2023-04-01T14:07:27;10.40;99.90
51637;DHT22;37713;53.254;6.460;2023-04-01T14:20:51;10.30;99.90
51637;DHT22;37713;53.254;6.460;2023-04-01T14:43:07;9.60;99.90
51637;DHT22;37713;53.254;6.460;2023-04-01T14:48:33;9.50;99.90
51637;DHT22;37713;53.254;6.460;2023-04-01T14:54:14;9.40;99.90
51637;DHT22;37713;53.254;6.460;2023-04-01T14:56:50;9.30;99.90
51637;DHT22;37713;53.254;6.460;2023-04-01T15:04:46;9.10;99.90
51637;DHT22;37713;53.254;6.460;2023-04-01T15:07:37;9.00;99.90
51637;DHT22;37713;53.254;6.460;2023-04-01T15:12:53;8.80;99.90
51637;DHT22;37713;53.254;6.460;2023-04-01T15:15:57;8.80;99.90
51637;DHT22;37713;53.254;6.460;2023-04-01T15:24:45;8.60;99.90
51637;DHT22;37713;53.254;6.460;2023-04-01T15:30:28;8.50;99.90
51637;DHT22;37713;53.254;6.460;2023-04-01T15:38:52;8.50;99.90
51637;DHT22;37713;53.254;6.460;2023-04-01T15:43:47;8.30;99.90
51637;DHT22;37713;53.254;6.460;2023-04-01T15:46:30;8.30;99.90
51637;DHT22;37713;53.254;6.460;2023-04-01T15:49:22;8.20;99.90
51637;DHT22;37713;53.254;6.460;2023-04-01T15:52:02;8.20;99.90
51637;DHT22;37713;53.254;6.460;2023-04-01T16:22:48;7.80;99.90
51637;DHT22;37713;53.254;6.460;2023-04-01T16:25:36;7.80;99.90
51637;DHT22;37713;53.254;6.460;2023-04-01T16:28:22;7.70;99.90
51637;DHT22;37713;53.254;6.460;2023-04-01T16:30:55;7.70;99.90
51637;DHT22;37713;53.254;6.460;2023-04-01T16:38:38;7.50;99.90
51637;DHT22;37713;53.254;6.460;2023-04-01T16:41:36;7.40;99.90
51637;DHT22;37713;53.254;6.460;2023-04-01T16:44:20;7.30;99.90
51637;DHT22;37713;53.254;6.460;2023-04-01T16:46:56;7.30;99.90
51637;DHT22;37713;53.254;6.460;2023-04-01T16:55:02;7.20;99.90
51637;DHT22;37713;53.254;6.460;2023-04-01T16:57:46;7.20;99.90
51637;DHT22;37713;53.254;6.460;2023-04-01T17:11:12;7.10;99.90
51637;DHT22;37713;53.254;6.460;2023-04-01T17:13:46;7.10;99.90
51637;DHT22;37713;53.254;6.460;2023-04-01T17:27:35;6.90;99.90
51637;DHT22;37713;53.254;6.460;2023-04-01T17:35:38;6.90;99.90
51637;DHT22;37713;53.254;6.460;2023-04-01T17:41:31;6.80;99.90
51637;DHT22;37713;53.254;6.460;2023-04-01T17:56:07;6.60;99.90
51637;DHT22;37713;53.254;6.460;2023-04-01T17:58:44;6.60;99.90
51637;DHT22;37713;53.254;6.460;2023-04-01T18:05:11;6.60;99.90
51637;DHT22;37713;53.254;6.460;2023-04-01T18:07:23;6.50;99.90
51637;DHT22;37713;53.254;6.460;2023-04-01T18:24:11;6.40;99.90
51637;DHT22;37713;53.254;6.460;2023-04-01T18:27:43;6.40;99.90
51637;DHT22;37713;53.254;6.460;2023-04-01T18:37:47;6.30;99.90
51637;DHT22;37713;53.254;6.460;2023-04-01T18:40:32;6.30;99.90
51637;DHT22;37713;53.254;6.460;2023-04-01T18:51:03;6.20;99.90
51637;DHT22;37713;53.254;6.460;2023-04-01T18:54:02;6.20;99.90
51637;DHT22;37713;53.254;6.460;2023-04-01T18:56:39;6.10;99.90
51637;DHT22;37713;53.254;6.460;2023-04-01T18:59:29;6.10;99.90
51637;DHT22;37713;53.254;6.460;2023-04-01T19:02:08;6.10;99.90
51637;DHT22;37713;53.254;6.460;2023-04-01T19:04:52;6.10;99.90
51637;DHT22;37713;53.254;6.460;2023-04-01T19:13:22;6.00;99.90
51637;DHT22;37713;53.254;6.460;2023-04-01T19:21:46;5.90;99.90
51637;DHT22;37713;53.254;6.460;2023-04-01T19:24:41;6.00;99.90
51637;DHT22;37713;53.254;6.460;2023-04-01T19:27:36;5.90;99.90
51637;DHT22;37713;53.254;6.460;2023-04-01T19:33:23;5.80;99.90
51637;DHT22;37713;53.254;6.460;2023-04-01T19:48:00;5.70;99.90
51637;DHT22;37713;53.254;6.460;2023-04-01T19:52:53;5.70;99.90
51637;DHT22;37713;53.254;6.460;2023-04-01T19:58:05;5.60;99.90
51637;DHT22;37713;53.254;6.460;2023-04-01T20:00:36;5.60;99.90
51637;DHT22;37713;53.254;6.460;2023-04-01T20:11:21;5.60;99.90
51637;DHT22;37713;53.254;6.460;2023-04-01T20:16:11;5.60;99.90
51637;DHT22;37713;53.254;6.460;2023-04-01T20:18:59;5.60;99.90
51637;DHT22;37713;53.254;6.460;2023-04-01T20:21:33;5.60;99.90
51637;DHT22;37713;53.254;6.460;2023-04-01T20:24:24;5.50;99.90
51637;DHT22;37713;53.254;6.460;2023-04-01T20:27:17;5.60;99.90
51637;DHT22;37713;53.254;6.460;2023-04-01T20:36:00;5.50;99.90
51637;DHT22;37713;53.254;6.460;2023-04-01T20:51:54;5.40;99.90
51637;DHT22;37713;53.254;6.460;2023-04-01T20:54:30;5.40;99.90
51637;DHT22;37713;53.254;6.460;2023-04-01T21:13:23;5.30;99.90
51637;DHT22;37713;53.254;6.460;2023-04-01T21:24:23;5.30;99.90
51637;DHT22;37713;53.254;6.460;2023-04-01T21:51:26;5.10;99.90
51637;DHT22;37713;53.254;6.460;2023-04-01T21:57:24;5.10;99.90
51637;DHT22;37713;53.254;6.460;2023-04-01T22:00:41;5.00;99.90
51637;DHT22;37713;53.254;6.460;2023-04-01T22:06:14;5.00;99.90
51637;DHT22;37713;53.254;6.460;2023-04-01T22:10:59;4.90;99.90
51637;DHT22;37713;53.254;6.460;2023-04-01T22:13:53;5.00;99.90
51637;DHT22;37713;53.254;6.460;2023-04-01T22:19:12;4.90;99.90
51637;DHT22;37713;53.254;6.460;2023-04-01T22:27:09;4.80;99.90
51637;DHT22;37713;53.254;6.460;2023-04-01T22:32:44;4.70;99.90
51637;DHT22;37713;53.254;6.460;2023-04-01T22:41:19;4.60;99.90
51637;DHT22;37713;53.254;6.460;2023-04-01T22:43:48;4.50;99.90
51637;DHT22;37713;53.254;6.460;2023-04-01T22:46:39;4.50;99.90
51637;DHT22;37713;53.254;6.460;2023-04-01T22:49:22;4.40;99.90
51637;DHT22;37713;53.254;6.460;2023-04-01T22:51:54;4.40;99.90
51637;DHT22;37713;53.254;6.460;2023-04-01T22:54:33;4.30;99.90
51637;DHT22;37713;53.254;6.460;2023-04-01T22:57:28;4.30;99.90
51637;DHT22;37713;53.254;6.460;2023-04-01T22:59:58;4.20;99.90
51637;DHT22;37713;53.254;6.460;2023-04-01T23:02:31;4.30;99.90
51637;DHT22;37713;53.254;6.460;2023-04-01T23:05:05;4.20;99.90
51637;DHT22;37713;53.254;6.460;2023-04-01T23:07:53;4.10;99.90
51637;DHT22;37713;53.254;6.460;2023-04-01T23:10:25;4.10;99.90
51637;DHT22;37713;53.254;6.460;2023-04-01T23:12:56;4.10;99.90
51637;DHT22;37713;53.254;6.460;2023-04-01T23:15:23;4.00;99.90
51637;DHT22;37713;53.254;6.460;2023-04-01T23:20:50;3.90;99.90
51637;DHT22;37713;53.254;6.460;2023-04-01T23:23:48;3.90;99.90
51637;DHT22;37713;53.254;6.460;2023-04-01T23:28:53;3.80;99.90
51637;DHT22;37713;53.254;6.460;2023-04-01T23:31:36;3.80;99.90
51637;DHT22;37713;53.254;6.460;2023-04-01T23:34:21;3.70;99.90
51637;DHT22;37713;53.254;6.460;2023-04-01T23:37:02;3.70;99.90
51637;DHT22;37713;53.254;6.460;2023-04-01T23:39:35;3.60;99.90
51637;DHT22;37713;53.254;6.460;2023-04-01T23:42:07;3.50;99.90
51637;DHT22;37713;53.254;6.460;2023-04-01T23:44:39;3.40;99.90
51637;DHT22;37713;53.254;6.460;2023-04-01T23:47:06;3.40;99.90
51637;DHT22;37713;53.254;6.460;2023-04-01T23:49:40;3.40;99.90
51637;DHT22;37713;53.254;6.460;2023-04-01T23:52:17;3.30;99.90
51637;DHT22;37713;53.254;6.460;2023-04-01T23:57:36;3.10;99.90
